Latest Flight | Flight Log | Data Trends | Login | Join FlightData.com!
Flight Info - N131SR (Cirrus SR22 Turbo (TAT) #1878)
Date
Origin
Dest
Depart
Arrive
Hobbs
Flight Time
Ground Time
Flight Distance
Taxi Distance
Fuel
Fuel/hr
Fuel/nm
Altitude
Gnd Speed
Sat, May 14, 2022 EDLD EDLD 08:31 09:12 0.68 hrs 0.4 hrs (0:24) 0.28 hrs (0:17) 49.77 nm 1.12 nm 6.5 gal 9.55 gal/hr 0.13 gal/nm 4098 msl 123.05 kts
Flight Track | Google Earth Export: 3D View, Cockpit View
NEXRAD Archive
Zoom In: Double click. Zoom Out: Double right-click.
Scroll Map: Left-click and drag. Show on graph: Click on track.
Graph | Increase Sample Rate (1 sec) |
Zoom In: Click and Drag to the right and down. Zoom Out: Click and Drag to the left.
Scroll Chart (while zoomed in): Hold right mouse-button.
More Flights - N131SR
Sun, May 8, 2022 EDLD EDWG 11:25 13:08 1.72 hrs 1.41 hrs 181.66 nm 19.70 gal 11.48 gal/hr 0.11 gal/nm 4603 msl 129 kts
Cruise 11:51:46 12:05:04   13m 18s 30.63 nm 3.11 gal 14 gal/h 0.1 gal/nm 0 feet 135 kts    
Cruise 12:11:04 12:34:10   23m 06s 53.55 nm 5.01 gal 13 gal/h 0.09 gal/nm 0 feet 133 kts    
Cruise 12:43:04 12:52:10   9m 06s 18.23 nm 1.67 gal 11 gal/h 0.09 gal/nm 0 feet 116 kts    
Sun, Sep 26, 2021 EDLD EDWY 10:02 11:11 1.15 hrs 0.89 hrs 135.73 nm 13.50 gal 11.77 gal/hr 0.10 gal/nm 4524 msl 152 kts
Cruise 10:42:42 10:46:30   3m 48s 9.03 nm 0.83 gal 13 gal/h 0.09 gal/nm 0 feet 156 kts    
Cruise 10:51:36 10:59:18   7m 42s 18.78 nm 1.8 gal 14 gal/h 0.1 gal/nm 0 feet 157 kts    
Tue, Jul 20, 2021 EDXO EDCG 13:03 15:30 2.45 hrs 2.24 hrs 308.91 nm 27.70 gal 11.30 gal/hr 0.09 gal/nm 4226 msl 138 kts
Cruise 13:22:22 13:40:16   17m 54s 39.72 nm 3.28 gal 11 gal/h 0.08 gal/nm 0 feet 134 kts    
Cruise 13:46:46 13:53:22   6m 36s 14.34 nm 1.32 gal 12 gal/h 0.09 gal/nm 0 feet 134 kts    
Cruise 14:07:16 14:10:34   3m 18s 7.63 nm 0.61 gal 11 gal/h 0.08 gal/nm 0 feet 134 kts    
Cruise 14:18:04 14:36:04   18m 00s 41.14 nm 3.6 gal 12 gal/h 0.09 gal/nm 0 feet 144 kts    
Cruise 14:41:52 15:20:34   38m 42s 89.05 nm 7.74 gal 12 gal/h 0.09 gal/nm 0 feet 148 kts    
Tue, Jul 20, 2021 EDXO EDCG 13:03 15:30 2.45 hrs 2.24 hrs 308.93 nm 27.70 gal 11.30 gal/hr 0.09 gal/nm 4222 msl 138 kts
Cruise 13:22:24 13:40:18   17m 54s 40.01 nm 3.28 gal 11 gal/h 0.08 gal/nm 0 feet 134 kts    
Cruise 13:46:42 13:53:24   6m 42s 14.55 nm 1.34 gal 12 gal/h 0.09 gal/nm 0 feet 134 kts    
Cruise 14:07:18 14:10:36   3m 18s 7.68 nm 0.61 gal 11 gal/h 0.08 gal/nm 0 feet 134 kts    
Cruise 14:18:00 14:36:06   18m 06s 41.67 nm 3.62 gal 12 gal/h 0.09 gal/nm 0 feet 144 kts    
Cruise 14:42:00 15:20:36   38m 36s 89.46 nm 7.72 gal 12 gal/h 0.09 gal/nm 0 feet 148 kts    
Tue, Nov 9, 2021 EDKV EDLB 12:40 14:23 1.71 hrs 1.17 hrs 151.69 nm 15.80 gal 9.25 gal/hr 0.10 gal/nm 4137 msl 129 kts
Cruise 12:58:24 13:01:06   2m 42s 6.47 nm 0.5 gal 11 gal/h 0.08 gal/nm 0 feet 130 kts    
Cruise 13:44:24 13:48:30   4m 06s 10.02 nm 1.03 gal 15 gal/h 0.1 gal/nm 0 feet 150 kts    
Cruise 14:02:42 14:10:30   7m 48s 17.07 nm 1.43 gal 11 gal/h 0.08 gal/nm 0 feet 135 kts    
Thu, May 13, 2021     14:12 16:22 2.17 hrs 0.94 hrs 0.00 nm 13.80 gal 6.35 gal/hr 0.00 gal/nm 4104 msl 119 kts
Sat, May 14, 2022 EDLD EDLD 08:31 09:12 0.68 hrs 0.4 hrs 49.77 nm 6.50 gal 9.55 gal/hr 0.13 gal/nm 4098 msl 123 kts
Fri, Jul 9, 2021     14:34 17:06 2.53 hrs 2.32 hrs 0.00 nm 32.50 gal 12.83 gal/hr 0.00 gal/nm 3734 msl 133 kts
Cruise 15:03:09 15:05:39   2m 30s 0 nm 0.5 gal 12 gal/h 0 gal/nm 0 feet 144 kts    
Cruise 15:11:33 15:32:21   20m 48s 0 nm 4.86 gal 14 gal/h 0 gal/nm 0 feet 134 kts    
Cruise 15:40:03 15:44:27   4m 24s 0 nm 1.03 gal 14 gal/h 0 gal/nm 0 feet 126 kts    
Cruise 15:49:51 15:53:21   3m 30s 0 nm 0.7 gal 12 gal/h 0 gal/nm 0 feet 127 kts    
Cruise 15:59:51 16:25:09   25m 18s 0 nm 5.91 gal 14 gal/h 0 gal/nm 0 feet 141 kts    
Cruise 16:31:15 16:57:03   25m 48s 0 nm 6.02 gal 14 gal/h 0 gal/nm 0 feet 140 kts    
Thu, Jan 6, 2022 EDLD EDWY 10:29 12:14 1.76 hrs 1.3 hrs 164.34 nm 18.20 gal 10.34 gal/hr 0.11 gal/nm 3730 msl 126 kts
Cruise 11:38:56 11:40:38   1m 42s 3.66 nm 0.31 gal 11 gal/h 0.08 gal/nm 0 feet 129 kts    
Cruise 11:45:44 11:55:14   9m 30s 19.99 nm 1.9 gal 12 gal/h 0.1 gal/nm 0 feet 126 kts    
Cruise 12:00:20 12:05:32   5m 12s 11.91 nm 1.13 gal 13 gal/h 0.09 gal/nm 0 feet 137 kts    
Sun, Sep 26, 2021 EDWY EDLD 15:26 16:39 1.2 hrs 1.05 hrs 135.85 nm 15.80 gal 13.12 gal/hr 0.12 gal/nm 3711 msl 129 kts
Cruise 16:05:53 16:27:35   21m 42s 52.48 nm 5.43 gal 15 gal/h 0.1 gal/nm 0 feet 131 kts    
Wed, Feb 2, 2022 EDLD EDLD 13:00 14:19 1.32 hrs 0.88 hrs 107.88 nm 12.30 gal 9.35 gal/hr 0.11 gal/nm 3540 msl 123 kts
Cruise 13:45:40 14:04:22   18m 42s 38.99 nm 3.74 gal 12 gal/h 0.1 gal/nm 0 feet 126 kts    
Wed, Feb 23, 2022 EDRK EDRY 11:18 12:05 0.77 hrs 0.61 hrs 79.68 nm 8.30 gal 10.74 gal/hr 0.10 gal/nm 3442 msl 131 kts
Cruise 11:39:23 11:51:41   12m 18s 28.53 nm 2.46 gal 12 gal/h 0.09 gal/nm 0 feet 135 kts    
Fri, Mar 18, 2022 EDLD EDLD 15:58 17:22 1.4 hrs 1.03 hrs 127.94 nm 13.80 gal 9.89 gal/hr 0.11 gal/nm 3438 msl 124 kts
Cruise 16:29:44 16:37:02   7m 18s 16.1 nm 1.59 gal 13 gal/h 0.1 gal/nm 0 feet 118 kts    
Cruise 16:47:20 16:57:08   9m 48s 20.78 nm 1.96 gal 12 gal/h 0.09 gal/nm 0 feet 141 kts    
Cruise 17:08:38 17:10:56   2m 18s 4.87 nm 0.5 gal 13 gal/h 0.1 gal/nm 0 feet 133 kts    
Complete Flight Log (84)
FlightData.com is sponsored by AEROCOR